Time;durP1;ratioP1;P1;durP2;ratioP2;P2;SDS_P1;SDS_P2;PMS_P1;PMS_P2;Temp;Humidity;BMP_temperature;BMP_pressure;BME280_temperature;BME280_humidity;BME280_pressure;Samples;Min_cycle;Max_cycle;Signal;HPM_P1;HPM_P2
2022/06/23 00:00:59;;;;;;;7.85;5.30;;;;;;;19.71;51.21;101112.63;5010856;28;20453;-47
2022/06/23 00:03:28;;;;;;;9.27;5.95;;;;;;;19.70;51.31;101116.19;5010914;28;20041;-49
2022/06/23 00:05:59;;;;;;;8.13;5.63;;;;;;;19.67;51.34;101110.88;5010245;28;20096;-47
2022/06/23 00:08:25;;;;;;;8.63;5.38;;;;;;;19.62;51.50;101106.56;5009837;28;20034;-47
2022/06/23 00:10:57;;;;;;;8.43;6.20;;;;;;;19.59;52.21;101103.91;5010662;28;20044;-47
2022/06/23 00:13:35;;;;;;;8.10;5.63;;;;;;;19.57;52.08;101100.41;5009896;28;20037;-45
2022/06/23 00:16:02;;;;;;;8.30;6.00;;;;;;;19.54;52.53;101107.50;5009462;28;20033;-45
2022/06/23 00:18:35;;;;;;;9.00;5.82;;;;;;;19.51;52.98;101105.78;5010739;28;20024;-47
2022/06/23 00:21:08;;;;;;;8.95;6.10;;;;;;;19.48;53.27;101113.72;5010009;28;20057;-47
2022/06/23 00:23:37;;;;;;;8.63;5.85;;;;;;;19.45;53.35;101100.50;5010593;28;20022;-46
2022/06/23 00:26:20;;;;;;;8.43;5.85;;;;;;;19.43;52.97;101097.03;5010481;28;20033;-45
2022/06/23 00:29:01;;;;;;;9.90;6.53;;;;;;;19.39;53.08;101104.13;5010634;28;20041;-47
2022/06/23 00:31:39;;;;;;;9.27;5.93;;;;;;;19.36;53.57;101105.91;5010628;28;20030;-48
2022/06/23 00:34:27;;;;;;;8.90;5.90;;;;;;;19.32;53.91;101112.09;5009340;28;20034;-47
2022/06/23 00:37:03;;;;;;;8.10;6.30;;;;;;;19.24;54.61;101109.53;5010045;28;20068;-56
2022/06/23 00:39:35;;;;;;;11.25;6.90;;;;;;;19.20;54.69;101118.34;5009252;28;20033;-57
2022/06/23 00:42:06;;;;;;;9.75;6.57;;;;;;;19.17;55.63;101121.03;5010600;28;20018;-56
2022/06/23 00:44:41;;;;;;;9.45;6.35;;;;;;;19.14;55.14;101116.63;5010618;28;20041;-57
2022/06/23 00:47:13;;;;;;;9.73;6.70;;;;;;;19.10;55.53;101115.78;5009550;28;20489;-56
2022/06/23 00:49:48;;;;;;;9.27;6.55;;;;;;;19.06;55.91;101121.09;5010207;28;20030;-57
2022/06/23 00:52:33;;;;;;;11.00;6.95;;;;;;;19.03;55.60;101105.25;5010137;28;20065;-56
2022/06/23 00:55:04;;;;;;;8.57;6.60;;;;;;;18.97;56.11;101106.19;5010144;28;20026;-56
2022/06/23 00:57:43;;;;;;;10.02;6.68;;;;;;;18.94;56.04;101107.09;5010340;28;20515;-56
2022/06/23 01:00:16;;;;;;;10.32;6.68;;;;;;;18.91;56.41;101087.75;5010126;28;20485;-56
2022/06/23 01:02:50;;;;;;;11.80;7.03;;;;;;;18.87;56.83;101091.28;5009356;28;20103;-56
2022/06/23 01:05:22;;;;;;;10.23;7.38;;;;;;;18.85;56.33;101093.06;5010016;28;20022;-56
2022/06/23 01:08:04;;;;;;;13.93;7.43;;;;;;;18.84;56.41;101093.94;5010181;28;20026;-56
2022/06/23 01:10:54;;;;;;;9.23;7.63;;;;;;;18.80;56.87;101092.19;5010107;28;20559;-56
2022/06/23 01:13:34;;;;;;;10.00;7.88;;;;;;;18.74;57.32;101083.44;5009125;28;20140;-56
2022/06/23 01:16:14;;;;;;;10.68;7.55;;;;;;;18.74;56.95;101082.53;5011109;28;20419;-56
2022/06/23 01:18:51;;;;;;;11.68;8.18;;;;;;;18.70;57.46;101086.13;5014087;28;20034;-56
2022/06/23 01:21:26;;;;;;;9.55;7.95;;;;;;;18.69;57.81;101081.72;5013678;28;20025;-56
2022/06/23 01:24:22;;;;;;;11.75;8.27;;;;;;;18.67;57.41;101091.38;5014175;28;20041;-56
2022/06/23 01:27:18;;;;;;;11.13;8.15;;;;;;;18.64;58.06;101089.66;5012916;28;20033;-56
2022/06/23 01:29:52;;;;;;;10.80;8.05;;;;;;;18.64;58.14;101094.03;5013758;28;20030;-57
2022/06/23 01:32:30;;;;;;;11.93;8.15;;;;;;;18.60;58.39;101090.56;5013868;28;20026;-56
2022/06/23 01:35:08;;;;;;;12.57;9.13;;;;;;;18.57;59.16;101086.16;5014008;28;20537;-56
2022/06/23 01:37:42;;;;;;;13.40;9.38;;;;;;;18.53;59.42;101094.13;5012797;28;20038;-56
2022/06/23 01:40:13;;;;;;;13.38;8.93;;;;;;;18.50;59.44;101087.09;5012898;28;20042;-56
2022/06/23 01:43:04;;;;;;;12.02;9.10;;;;;;;18.48;59.22;101085.34;5012261;28;20030;-57
2022/06/23 01:45:53;;;;;;;10.77;8.30;;;;;;;18.45;59.78;101094.16;5013630;28;20113;-56
2022/06/23 01:49:03;;;;;;;11.77;9.23;;;;;;;18.40;59.94;101088.88;5011797;28;20603;-57
2022/06/23 01:51:23;;;;;;;11.45;8.88;;;;;;;18.37;60.63;101094.19;5011068;28;20034;-57
2022/06/23 01:53:51;;;;;;;12.15;9.10;;;;;;;18.35;59.97;101095.06;5013527;28;20032;-57
2022/06/23 01:56:24;;;;;;;13.68;9.45;;;;;;;18.31;60.81;101091.59;5013174;28;20075;-56
2022/06/23 01:59:17;;;;;;;12.95;9.13;;;;;;;18.31;60.26;101090.72;5013271;28;20794;-56
2022/06/23 02:01:57;;;;;;;14.82;9.40;;;;;;;18.28;61.13;101080.16;5012173;28;20049;-56
2022/06/23 02:04:54;;;;;;;11.65;9.15;;;;;;;18.24;60.64;101080.16;5013385;28;20049;-57
2022/06/23 02:07:23;;;;;;;13.00;9.95;;;;;;;18.18;61.93;101080.22;5012965;28;20464;-56
2022/06/23 02:09:58;;;;;;;13.13;9.63;;;;;;;18.16;61.34;101079.34;5013071;28;20124;-56
2022/06/23 02:12:42;;;;;;;13.82;10.07;;;;;;;18.16;60.72;101082.00;5011808;28;20030;-57
2022/06/23 02:15:12;;;;;;;11.15;9.40;;;;;;;18.11;62.33;101077.63;5012915;28;20481;-56
2022/06/23 02:17:51;;;;;;;12.13;8.88;;;;;;;18.09;61.80;101072.34;5013059;28;20036;-56
2022/06/23 02:20:16;;;;;;;14.13;9.85;;;;;;;18.05;62.78;101066.19;5011761;28;20117;-57
2022/06/23 02:22:45;;;;;;;15.10;9.82;;;;;;;18.03;62.91;101073.25;5012936;28;20495;-56
2022/06/23 02:25:27;;;;;;;12.15;9.88;;;;;;;18.04;62.10;101076.75;5012663;28;20437;-56
2022/06/23 02:28:11;;;;;;;12.70;10.38;;;;;;;18.01;62.78;101066.22;5011235;28;20038;-56
2022/06/23 02:30:47;;;;;;;13.65;10.23;;;;;;;17.97;62.59;101067.09;5012836;28;20076;-56
2022/06/23 02:33:28;;;;;;;13.23;10.27;;;;;;;17.96;63.12;101070.59;5012693;28;20079;-56
2022/06/23 02:36:16;;;;;;;12.60;10.00;;;;;;;17.92;63.29;101061.84;5011444;28;20029;-56
2022/06/23 02:38:49;;;;;;;13.25;10.52;;;;;;;17.90;63.75;101058.31;5011624;28;20447;-56
2022/06/23 02:41:24;;;;;;;15.30;11.10;;;;;;;17.87;63.71;101064.47;5001694;28;20076;-56
2022/06/23 02:44:02;;;;;;;18.40;10.25;;;;;;;17.87;63.41;101063.56;5012369;28;20026;-57
2022/06/23 02:47:01;;;;;;;14.50;11.18;;;;;;;17.87;63.05;101074.13;5012439;28;20026;-46
2022/06/23 02:49:41;;;;;;;14.90;10.77;;;;;;;17.85;64.08;101075.91;5012301;28;20478;-46
2022/06/23 02:52:16;;;;;;;15.55;11.05;;;;;;;17.79;64.93;101068.88;5011541;28;20068;-45
2022/06/23 02:55:01;;;;;;;13.88;10.60;;;;;;;17.81;63.99;101075.00;5012276;28;20030;-46
2022/06/23 02:57:38;;;;;;;15.40;10.55;;;;;;;17.80;63.99;101067.09;5012271;28;20041;-46
2022/06/23 03:00:27;;;;;;;13.07;10.07;;;;;;;17.80;63.75;101067.09;5012049;28;20022;-45
2022/06/23 03:03:08;;;;;;;17.75;10.93;;;;;;;17.76;64.55;101055.72;5011233;28;20053;-45
2022/06/23 03:05:46;;;;;;;15.85;11.38;;;;;;;17.73;64.15;101056.59;5012316;28;20093;-45
2022/06/23 03:08:42;;;;;;;15.95;11.48;;;;;;;17.72;63.90;101046.06;5012136;28;20034;-46
2022/06/23 03:11:51;;;;;;;14.80;11.07;;;;;;;17.70;64.53;101051.34;5011913;28;20083;-46
2022/06/23 03:14:08;;;;;;;15.55;11.27;;;;;;;17.67;65.10;101050.44;5011445;28;20402;-46
2022/06/23 03:16:42;;;;;;;18.40;12.18;;;;;;;17.65;65.14;101047.81;5011064;28;20049;-46
2022/06/23 03:19:19;;;;;;;16.38;10.93;;;;;;;17.63;64.57;101041.69;4998968;28;20029;-46
2022/06/23 03:22:03;;;;;;;17.15;12.27;;;;;;;17.62;64.35;101036.41;5011633;28;20021;-46
2022/06/23 03:24:39;;;;;;;17.20;11.23;;;;;;;17.59;65.01;101041.69;5011516;28;20032;-45
2022/06/23 03:27:30;;;;;;;18.45;12.02;;;;;;;17.57;64.38;101039.06;5010626;28;20030;-45
2022/06/23 03:30:16;;;;;;;15.55;11.23;;;;;;;17.52;65.07;101038.19;5011610;28;20409;-45
2022/06/23 03:32:48;;;;;;;16.48;11.85;;;;;;;17.51;64.89;101037.31;5010367;28;20049;-45
2022/06/23 03:35:45;;;;;;;18.02;12.38;;;;;;;17.50;64.33;101042.59;5011485;28;20033;-46
2022/06/23 03:41:37;;;;;;;15.90;11.80;;;;;;;17.41;65.43;101054.03;5010079;28;20326;-47
2022/06/23 03:44:19;;;;;;;17.25;11.68;;;;;;;17.39;65.20;101053.13;5010752;28;20485;-47
2022/06/23 03:47:01;;;;;;;15.73;12.02;;;;;;;17.37;65.05;101047.00;5011358;28;20062;-45
2022/06/23 03:49:50;;;;;;;18.50;12.30;;;;;;;17.36;65.05;101055.78;5011468;28;20096;-46
2022/06/23 03:52:37;;;;;;;19.58;11.70;;;;;;;17.35;64.73;101054.91;5011149;28;20028;-46
2022/06/23 03:55:21;;;;;;;17.58;11.98;;;;;;;17.36;64.76;101056.66;5010007;28;20128;-49
2022/06/23 03:57:55;;;;;;;17.20;11.88;;;;;;;17.33;65.20;101059.28;5011187;28;20093;-50
2022/06/23 04:00:27;;;;;;;18.45;12.25;;;;;;;17.33;64.91;101061.91;5010992;28;20034;-47
2022/06/23 04:03:15;;;;;;;15.38;11.52;;;;;;;17.33;65.00;101056.66;5011007;28;20143;-49
2022/06/23 04:06:11;;;;;;;18.65;12.77;;;;;;;17.33;64.71;101055.78;5011006;28;20056;-47
2022/06/23 04:08:45;;;;;;;17.02;12.60;;;;;;;17.29;65.42;101054.03;5010787;28;20113;-50
2022/06/23 04:14:02;;;;;;;17.38;12.15;;;;;;;17.26;65.28;101051.41;5010983;28;20045;-49
2022/06/23 04:16:31;;;;;;;18.48;12.52;;;;;;;17.25;65.89;101057.53;5010926;28;20117;-47
2022/06/23 04:18:57;;;;;;;18.10;12.77;;;;;;;17.23;65.83;101054.91;5010216;28;20018;-47
2022/06/23 04:21:27;;;;;;;19.33;13.00;;;;;;;17.22;66.12;101053.19;5008721;28;20048;-48
2022/06/23 04:23:57;;;;;;;18.88;13.18;;;;;;;17.23;65.59;101048.78;5010885;28;20024;-48
2022/06/23 04:26:31;;;;;;;18.10;12.27;;;;;;;17.20;65.91;101039.97;5010442;28;20032;-47
2022/06/23 04:29:05;;;;;;;17.02;12.85;;;;;;;17.17;66.05;101039.13;5009781;28;20076;-49
2022/06/23 04:31:36;;;;;;;18.48;12.48;;;;;;;17.14;66.19;101033.88;5010758;28;20492;-45
2022/06/23 04:34:02;;;;;;;17.33;13.13;;;;;;;17.16;66.04;101033.00;5009317;28;20041;-46
2022/06/23 04:36:33;;;;;;;20.33;13.55;;;;;;;17.15;65.88;101040.91;5010360;28;20481;-50
2022/06/23 04:39:07;;;;;;;18.52;12.85;;;;;;;17.16;66.05;101045.25;5009735;28;20112;-49
2022/06/23 04:41:44;;;;;;;20.48;14.07;;;;;;;17.15;66.41;101054.91;5009121;28;20050;-47
2022/06/23 04:44:16;;;;;;;21.50;13.40;;;;;;;17.15;66.82;101051.44;5010189;28;20607;-49
2022/06/23 04:46:44;;;;;;;19.42;13.70;;;;;;;17.13;66.53;101055.78;5009207;28;20064;-56
2022/06/23 04:49:24;;;;;;;19.15;13.63;;;;;;;17.15;66.32;101049.66;5010277;28;20073;-56
2022/06/23 04:51:57;;;;;;;20.52;14.20;;;;;;;17.14;66.33;101058.44;5010242;28;20079;-56
2022/06/23 04:54:32;;;;;;;18.80;13.63;;;;;;;17.12;66.43;101047.03;5008666;28;20030;-56
2022/06/23 04:57:20;;;;;;;18.10;13.52;;;;;;;17.16;66.02;101048.78;5009028;28;20058;-56
2022/06/23 04:59:54;;;;;;;21.02;14.27;;;;;;;17.15;66.09;101041.75;5010231;28;20101;-56
2022/06/23 05:02:30;;;;;;;21.10;14.85;;;;;;;17.15;66.94;101052.28;5009903;28;20551;-56
2022/06/23 05:05:24;;;;;;;20.92;13.88;;;;;;;17.14;66.36;101047.03;5010437;28;20089;-56
2022/06/23 05:07:59;;;;;;;21.25;14.55;;;;;;;17.15;66.69;101040.91;5009340;28;20489;-57
2022/06/23 05:10:33;;;;;;;18.38;13.35;;;;;;;17.15;66.37;101040.91;4991823;28;20033;-56
2022/06/23 05:13:08;;;;;;;22.40;13.32;;;;;;;17.15;65.82;101049.66;5009865;28;20025;-56
2022/06/23 05:15:44;;;;;;;17.00;13.05;;;;;;;17.17;64.61;101057.56;5009902;28;20440;-56
2022/06/23 05:18:15;;;;;;;18.58;12.70;;;;;;;17.15;66.07;101062.81;5009922;28;20030;-57
2022/06/23 05:20:49;;;;;;;18.52;12.73;;;;;;;17.16;66.18;101058.41;5009783;28;20056;-56
2022/06/23 05:23:24;;;;;;;18.65;12.90;;;;;;;17.17;66.53;101063.69;5009361;28;20030;-56
2022/06/23 05:25:53;;;;;;;16.45;12.55;;;;;;;17.20;66.34;101057.53;5009781;28;20056;-56
2022/06/23 05:28:24;;;;;;;18.47;12.63;;;;;;;17.21;64.98;101057.53;5010070;28;20029;-56
2022/06/23 05:30:57;;;;;;;17.70;12.70;;;;;;;17.21;65.87;101061.94;5009874;28;20042;-56
2022/06/23 05:33:26;;;;;;;18.08;13.00;;;;;;;17.21;66.52;101052.28;5008960;28;20513;-57
2022/06/23 05:35:56;;;;;;;18.77;12.63;;;;;;;17.25;65.48;101052.28;5008736;28;20026;-56
2022/06/23 05:38:44;;;;;;;16.15;11.98;;;;;;;17.26;65.63;101049.63;5007845;28;20382;-56
2022/06/23 05:41:18;;;;;;;17.77;11.80;;;;;;;17.29;64.64;101048.75;5009705;28;20026;-56
2022/06/23 05:43:46;;;;;;;17.75;11.82;;;;;;;17.31;65.36;101053.16;5009945;28;20014;-56
2022/06/23 05:46:18;;;;;;;17.20;12.60;;;;;;;17.33;64.72;101042.63;5009669;28;20026;-55
2022/06/23 05:48:54;;;;;;;19.73;12.27;;;;;;;17.36;65.20;101050.50;5008284;28;20060;-49
2022/06/23 05:51:29;;;;;;;18.58;12.55;;;;;;;17.41;65.08;101050.50;5009737;28;20504;-46
2022/06/23 05:54:12;;;;;;;17.90;11.93;;;;;;;17.46;64.86;101049.63;5009628;28;20108;-49
2022/06/23 05:56:52;;;;;;;19.75;11.80;;;;;;;17.51;64.65;101045.22;5009732;28;20032;-49
2022/06/23 05:59:34;;;;;;;18.65;12.35;;;;;;;17.56;65.00;101046.09;5008774;28;20033;-49
2022/06/23 06:02:13;;;;;;;20.00;12.52;;;;;;;17.63;65.50;101051.38;5009536;28;20032;-48
2022/06/23 06:04:48;;;;;;;18.33;12.40;;;;;;;17.70;65.01;101056.59;5011356;28;20046;-48
2022/06/23 06:07:17;;;;;;;21.05;13.48;;;;;;;17.77;64.99;101057.47;5013040;28;20033;-47
2022/06/23 06:09:43;;;;;;;21.42;13.13;;;;;;;17.82;65.37;101055.69;5012308;28;20032;-48
2022/06/23 06:12:20;;;;;;;24.00;13.77;;;;;;;17.89;64.85;101048.66;5013119;28;20034;-48
2022/06/23 06:14:59;;;;;;;19.05;13.63;;;;;;;17.98;64.38;101050.41;5013093;28;20080;-50
2022/06/23 06:17:28;;;;;;;19.40;13.13;;;;;;;18.06;64.70;101043.31;5013007;28;20026;-47
2022/06/23 06:19:57;;;;;;;24.45;16.85;;;;;;;18.13;64.58;101042.41;5011890;28;20057;-47
2022/06/23 06:23:02;;;;;;;21.45;14.77;;;;;;;18.22;64.46;101052.94;5012852;28;20030;-50
2022/06/23 06:25:31;;;;;;;21.13;14.27;;;;;;;18.37;64.57;101048.47;4996581;28;20064;-48
2022/06/23 06:28:08;;;;;;;18.92;13.68;;;;;;;18.47;64.50;101044.91;5012873;28;20071;-50
2022/06/23 06:30:38;;;;;;;22.52;14.27;;;;;;;18.56;63.75;101043.97;5012240;28;20025;-47
2022/06/23 06:33:04;;;;;;;26.30;14.60;;;;;;;18.63;64.18;101043.03;5012816;28;20026;-49
2022/06/23 06:35:42;;;;;;;21.33;14.65;;;;;;;18.71;64.37;101051.78;5012950;28;20432;-50
2022/06/23 06:38:15;;;;;;;21.02;14.27;;;;;;;18.81;64.78;101063.13;5012688;28;20127;-49
2022/06/23 06:40:45;;;;;;;19.75;14.50;;;;;;;18.87;63.49;101064.91;5012580;28;20046;-49
2022/06/23 06:43:15;;;;;;;18.95;13.98;;;;;;;18.94;63.63;101053.41;5012737;28;20021;-49
2022/06/23 06:45:41;;;;;;;17.80;12.18;;;;;;;19.02;64.87;101048.06;5011668;28;20037;-50
2022/06/23 06:48:19;;;;;;;19.17;14.07;;;;;;;19.08;64.25;101056.81;5012531;28;20457;-56
2022/06/23 06:50:49;;;;;;;19.67;13.85;;;;;;;19.16;65.37;101056.75;5011787;28;20037;-57
2022/06/23 06:53:21;;;;;;;21.38;13.77;;;;;;;19.25;64.04;101046.09;5009217;28;20022;-57
2022/06/23 06:55:52;;;;;;;21.92;13.68;;;;;;;19.33;63.19;101042.50;5012492;28;20026;-56
2022/06/23 06:58:27;;;;;;;28.30;13.55;;;;;;;19.40;63.74;101039.78;5012340;28;20128;-57
2022/06/23 07:01:00;;;;;;;20.55;13.50;;;;;;;19.49;62.70;101049.38;5011422;28;20053;-56
2022/06/23 07:03:27;;;;;;;23.15;14.18;;;;;;;19.59;62.51;101040.47;5011940;28;20342;-56
2022/06/23 07:06:02;;;;;;;20.20;13.48;;;;;;;19.68;62.16;101042.13;5012268;28;20030;-57
2022/06/23 07:08:51;;;;;;;20.20;13.35;;;;;;;19.79;63.18;101044.72;5011139;28;20036;-57
2022/06/23 07:11:23;;;;;;;24.95;14.93;;;;;;;19.92;65.52;101053.38;5011602;28;20033;-56
2022/06/23 07:14:03;;;;;;;24.20;14.18;;;;;;;20.05;63.78;101062.03;5011535;28;20032;-56
2022/06/23 07:16:55;;;;;;;20.13;14.20;;;;;;;20.12;64.18;101066.38;5010655;28;20114;-49
2022/06/23 07:19:32;;;;;;;21.35;12.68;;;;;;;20.22;64.41;101056.50;5011068;28;20082;-50
2022/06/23 07:22:04;;;;;;;23.23;13.77;;;;;;;20.35;64.44;101057.22;5011704;28;20029;-50
2022/06/23 07:24:51;;;;;;;23.48;14.07;;;;;;;20.42;63.79;101054.50;5010621;28;20026;-47
2022/06/23 07:27:28;;;;;;;22.00;14.05;;;;;;;20.55;64.54;101049.00;5018362;28;20029;-51
2022/06/23 07:30:27;;;;;;;23.55;15.48;;;;;;;20.68;63.13;101047.97;5011062;28;20071;-50
2022/06/23 07:33:04;;;;;;;24.17;15.82;;;;;;;20.78;63.04;101040.75;5011101;28;20057;-50
2022/06/23 07:35:48;;;;;;;23.02;15.57;;;;;;;20.87;63.49;101045.94;5018459;28;20433;-52
2022/06/23 07:38:35;;;;;;;23.35;15.27;;;;;;;20.99;64.18;101036.91;5003895;28;20022;-49
2022/06/23 07:41:11;;;;;;;26.92;16.58;;;;;;;21.16;63.76;101041.91;5014937;28;20401;-50
2022/06/23 07:43:52;;;;;;;25.92;15.50;;;;;;;21.22;63.01;101039.16;5010582;28;20053;-51
2022/06/23 07:46:17;;;;;;;29.33;16.17;;;;;;;21.32;64.11;101039.84;5011217;28;20112;-57
2022/06/23 07:48:43;;;;;;;21.50;14.27;;;;;;;21.39;62.37;101036.19;5017810;28;20116;-57
2022/06/23 07:51:10;;;;;;;27.67;15.95;;;;;;;21.48;64.24;101043.97;5012120;28;20025;-57
2022/06/23 07:53:42;;;;;;;26.73;15.13;;;;;;;21.53;62.84;101041.28;5010951;28;20026;-57
2022/06/23 07:56:13;;;;;;;26.38;14.93;;;;;;;21.57;61.75;101035.00;5010260;28;20033;-57
2022/06/23 07:58:42;;;;;;;23.88;15.25;;;;;;;21.69;60.76;101036.56;5011153;28;20037;-57
2022/06/23 08:01:33;;;;;;;23.05;15.35;;;;;;;21.79;63.70;101037.25;5010781;28;21057;-56
2022/06/23 08:04:21;;;;;;;24.45;14.95;;;;;;;21.90;64.08;101035.25;5009095;28;20060;-57
2022/06/23 08:06:48;;;;;;;25.70;15.52;;;;;;;22.04;64.46;101037.59;5013065;28;20044;-57
2022/06/23 08:09:24;;;;;;;28.83;18.45;;;;;;;22.14;62.04;101038.28;5013118;28;20062;-57
2022/06/23 08:14:38;;;;;;;25.52;16.10;;;;;;;22.39;62.29;101030.69;5018726;28;20041;-57
2022/06/23 08:17:13;;;;;;;31.65;18.17;;;;;;;22.44;61.50;101034.13;5024919;28;20125;-51
2022/06/23 08:19:44;;;;;;;24.25;17.23;;;;;;;22.58;62.70;101031.16;5007877;28;20425;-51
2022/06/23 08:22:14;;;;;;;25.90;15.73;;;;;;;22.63;62.69;101031.91;5010249;28;20477;-50
2022/06/23 08:24:43;;;;;;;26.58;16.80;;;;;;;22.72;62.25;101031.72;5010186;28;20472;-50
2022/06/23 08:27:13;;;;;;;;;;;;;;;22.83;62.50;101027.91;5008700;28;20029;-50
2022/06/23 08:29:49;;;;;;;28.65;14.50;;;;;;;22.94;63.00;101023.19;5023503;28;19919;-50
2022/06/23 08:32:15;;;;;;;23.95;12.60;;;;;;;23.04;64.00;101016.75;5015686;28;20025;-50
2022/06/23 08:34:51;;;;;;;22.83;13.95;;;;;;;23.19;62.08;101014.66;5021458;28;20060;-51
2022/06/23 08:37:20;;;;;;;25.08;13.48;;;;;;;23.30;62.32;101022.31;5016355;28;20034;-59
2022/06/23 08:39:54;;;;;;;21.00;12.30;;;;;;;23.53;62.18;101016.38;5017520;28;20034;-60
2022/06/23 08:42:27;;;;;;;21.98;12.88;;;;;;;23.74;61.20;101017.56;5018461;28;20034;-59
2022/06/23 08:45:06;;;;;;;19.70;12.18;;;;;;;23.95;61.06;101018.75;5012663;28;20021;-59
2022/06/23 08:47:52;;;;;;;21.08;12.27;;;;;;;24.07;59.75;101014.84;5021500;28;20036;-55
2022/06/23 08:50:25;;;;;;;20.10;12.15;;;;;;;24.23;60.36;101016.16;5006169;28;20101;-56
2022/06/23 08:53:07;;;;;;;24.33;12.88;;;;;;;24.39;61.21;101011.22;5024815;28;20033;-55
2022/06/23 08:55:53;;;;;;;22.80;11.75;;;;;;;24.52;59.58;101011.72;5011568;28;20086;-55
2022/06/23 08:58:28;;;;;;;23.27;12.85;;;;;;;24.64;59.45;101018.47;5022497;28;20060;-57
2022/06/23 09:01:18;;;;;;;18.92;11.45;;;;;;;24.79;59.63;101025.94;5014067;28;20030;-56
2022/06/23 09:03:49;;;;;;;20.80;11.05;;;;;;;24.87;59.25;101015.03;5007431;28;20053;-56
2022/06/23 09:06:17;;;;;;;20.55;11.55;;;;;;;24.96;60.74;101016.53;5017044;28;20026;-55
2022/06/23 09:09:03;;;;;;;18.20;10.70;;;;;;;24.98;58.97;101009.34;5014893;28;20040;-55
2022/06/23 09:12:02;;;;;;;17.80;10.25;;;;;;;25.08;60.23;101015.22;5010149;28;20284;-55
2022/06/23 09:14:44;;;;;;;20.73;10.13;;;;;;;25.18;60.25;101004.19;4990557;28;20034;-55
2022/06/23 09:17:42;;;;;;;18.63;11.02;;;;;;;25.31;57.89;101001.97;5010143;28;20469;-57
2022/06/23 09:20:28;;;;;;;17.80;10.02;;;;;;;25.43;57.42;101002.47;5008742;28;20045;-58
2022/06/23 09:23:15;;;;;;;19.85;10.40;;;;;;;25.55;58.99;101003.81;5009317;28;20034;-60
2022/06/23 09:26:05;;;;;;;18.25;10.38;;;;;;;25.64;58.41;101006.19;5009790;28;20034;-57
2022/06/23 09:28:52;;;;;;;16.23;9.88;;;;;;;25.72;57.14;100993.41;5010354;28;20481;-59
2022/06/23 09:31:33;;;;;;;20.60;9.93;;;;;;;25.79;58.26;101002.91;5003535;28;20057;-57
2022/06/23 09:34:10;;;;;;;17.02;10.88;;;;;;;25.95;56.91;100995.19;5009786;28;20022;-60
2022/06/23 09:37:00;;;;;;;19.88;10.48;;;;;;;26.05;56.76;101000.22;5008737;28;20560;-59
2022/06/23 09:39:44;;;;;;;21.10;11.05;;;;;;;26.16;58.81;100990.00;5011734;28;20022;-59
2022/06/23 09:42:13;;;;;;;18.90;10.30;;;;;;;26.24;57.53;100987.88;5011906;28;20030;-59
2022/06/23 09:44:47;;;;;;;17.13;9.43;;;;;;;26.37;59.66;100986.47;5023207;28;20064;-58
2022/06/23 09:47:28;;;;;;;18.40;9.45;;;;;;;26.44;56.50;100987.09;5013302;28;20061;-55
2022/06/23 09:50:20;;;;;;;18.17;10.27;;;;;;;26.61;57.07;100993.56;5016190;28;20030;-56
2022/06/23 09:53:10;;;;;;;23.88;8.93;;;;;;;26.74;58.05;100989.47;5007217;28;20061;-55
2022/06/23 09:55:58;;;;;;;19.48;9.88;;;;;;;26.80;56.62;100980.31;5012791;28;20118;-56
2022/06/23 09:58:38;;;;;;;22.75;9.73;;;;;;;26.80;57.71;100985.66;5013250;28;20044;-56
2022/06/23 10:01:17;;;;;;;21.90;9.55;;;;;;;26.89;57.13;100979.91;5011441;28;20034;-57
2022/06/23 10:03:49;;;;;;;14.63;9.32;;;;;;;26.92;57.28;100974.44;5013286;28;20046;-57
2022/06/23 10:06:32;;;;;;;19.15;9.80;;;;;;;26.95;56.56;100974.31;5012951;28;20029;-57
2022/06/23 10:09:27;;;;;;;22.45;10.13;;;;;;;27.01;57.71;100978.53;5012378;28;20022;-56
2022/06/23 10:12:00;;;;;;;21.80;10.20;;;;;;;27.18;58.00;100980.47;5013064;28;20116;-57
2022/06/23 10:14:48;;;;;;;19.77;10.98;;;;;;;27.32;57.53;100977.19;5012646;28;20030;-57
2022/06/23 10:17:46;;;;;;;24.88;11.65;;;;;;;27.36;55.69;100978.81;5011750;28;20029;-56
2022/06/23 10:20:23;;;;;;;24.02;12.20;;;;;;;27.36;54.21;100976.13;5016423;28;20022;-56
2022/06/23 10:23:09;;;;;;;22.27;12.50;;;;;;;27.36;54.37;100978.81;5022189;28;20084;-55
2022/06/23 10:25:58;;;;;;;23.08;12.30;;;;;;;27.33;56.11;100974.44;5012813;28;20018;-56
2022/06/23 10:28:29;;;;;;;22.27;11.73;;;;;;;27.35;56.26;100977.09;5001451;28;20041;-56
2022/06/23 10:31:01;;;;;;;21.58;12.10;;;;;;;27.39;56.02;100979.56;5011279;28;20026;-55
2022/06/23 10:33:42;;;;;;;27.85;12.90;;;;;;;27.50;55.90;100975.53;5010936;28;20021;-57
2022/06/23 10:36:37;;;;;;;23.10;12.05;;;;;;;27.58;56.10;100976.06;5012488;28;20049;-57
2022/06/23 10:39:27;;;;;;;26.75;12.15;;;;;;;27.57;54.75;100972.47;5011413;28;20049;-58
2022/06/23 10:42:16;;;;;;;24.48;12.43;;;;;;;27.57;55.39;100961.78;5016414;28;20120;-56
2022/06/23 10:45:00;;;;;;;21.23;13.48;;;;;;;27.66;54.88;100968.50;5008757;28;20109;-56
2022/06/23 10:47:31;;;;;;;19.73;12.48;;;;;;;27.71;53.95;100965.66;5012752;28;20049;-58
2022/06/23 10:50:31;;;;;;;23.83;13.80;;;;;;;27.77;55.21;100962.69;5020453;28;20462;-56
2022/06/23 10:53:33;;;;;;;21.85;12.52;;;;;;;27.86;54.85;100953.34;5017074;28;20021;-56
2022/06/23 10:56:36;;;;;;;23.60;11.73;;;;;;;27.97;54.62;100952.81;5009455;28;20045;-56
2022/06/23 10:59:10;;;;;;;22.83;10.65;;;;;;;28.09;53.16;100944.25;5006686;28;20053;-56
2022/06/23 11:01:57;;;;;;;17.67;10.10;;;;;;;28.17;52.76;100950.09;5012273;28;20051;-56
2022/06/23 11:04:37;;;;;;;20.48;9.43;;;;;;;28.25;52.22;100950.56;5011874;28;20049;-55
2022/06/23 11:07:05;;;;;;;21.70;10.85;;;;;;;28.30;53.24;100944.13;5011971;28;20034;-56
2022/06/23 11:09:45;;;;;;;22.50;10.77;;;;;;;28.37;52.01;100945.56;5011863;28;20037;-56
2022/06/23 11:12:19;;;;;;;19.42;10.13;;;;;;;28.43;52.32;100934.53;5025219;28;20038;-57
2022/06/23 11:15:12;;;;;;;20.30;10.88;;;;;;;28.48;52.45;100937.88;5011980;28;20091;-57
2022/06/23 11:17:55;;;;;;;18.42;10.38;;;;;;;28.47;50.93;100935.25;5011941;28;20089;-57
2022/06/23 11:20:41;;;;;;;20.13;10.48;;;;;;;28.52;51.21;100939.44;5009448;28;20037;-56
2022/06/23 11:23:17;;;;;;;17.77;10.38;;;;;;;28.54;50.45;100932.19;5011612;28;20078;-56
2022/06/23 11:25:49;;;;;;;20.48;11.02;;;;;;;28.50;50.43;100937.78;5014148;28;20058;-57
2022/06/23 11:28:23;;;;;;;20.38;10.27;;;;;;;28.45;50.69;100936.19;5026881;28;20072;-57
2022/06/23 11:31:20;;;;;;;18.67;10.02;;;;;;;28.54;52.67;100939.38;5020515;28;20557;-58
2022/06/23 11:34:11;;;;;;;21.60;10.80;;;;;;;28.64;51.94;100934.44;5010552;28;20026;-58
2022/06/23 11:37:04;;;;;;;16.83;10.23;;;;;;;28.73;50.73;100929.47;5016503;28;20113;-57
2022/06/23 11:39:39;;;;;;;18.95;10.65;;;;;;;28.86;51.83;100936.88;5008403;28;20045;-58
2022/06/23 11:42:41;;;;;;;18.42;10.05;;;;;;;29.00;52.13;100930.81;5008866;28;20034;-58
2022/06/23 11:45:27;;;;;;;20.80;11.52;;;;;;;29.09;51.62;100933.00;5010714;28;20046;-57
2022/06/23 11:48:10;;;;;;;22.88;10.68;;;;;;;29.13;50.47;100938.13;4985565;28;20041;-56
2022/06/23 11:51:20;;;;;;;20.73;10.55;;;;;;;29.25;49.42;100936.63;5012699;28;20576;-57
2022/06/23 11:53:48;;;;;;;20.80;11.50;;;;;;;29.31;48.54;100920.22;5008211;28;20421;-58
2022/06/23 11:56:44;;;;;;;20.23;12.07;;;;;;;29.38;49.31;100922.56;5011356;28;21394;-57
2022/06/23 11:59:43;;;;;;;23.08;11.02;;;;;;;29.44;50.46;100927.59;5013351;28;20033;-57
2022/06/23 12:02:09;;;;;;;16.92;10.98;;;;;;;29.42;46.64;100918.75;5009691;28;20057;-55
2022/06/23 12:05:05;;;;;;;19.40;10.80;;;;;;;29.48;50.53;100918.41;5024983;28;20099;-56
2022/06/23 12:07:40;;;;;;;19.52;10.20;;;;;;;29.56;48.93;100913.50;5019368;28;20102;-57
2022/06/23 12:10:15;;;;;;;19.33;11.07;;;;;;;29.59;49.17;100913.34;5010815;28;20107;-56
2022/06/23 12:12:45;;;;;;;17.30;10.25;;;;;;;29.59;48.89;100912.44;5009316;28;20406;-57